Time;durP1;ratioP1;P1;durP2;ratioP2;P2;SDS_P1;SDS_P2;PMS_P1;PMS_P2;Temp;Humidity;BMP_temperature;BMP_pressure;BME280_temperature;BME280_humidity;BME280_pressure;Samples;Min_cycle;Max_cycle;Signal;HPM_P1;HPM_P2
2022/05/01 00:00:56;302971.00;1.01;523.03;0.00;0.00;0.62;;;;;16.60;1.00;;;;;;2272178;61;1549;-87
2022/05/01 00:03:39;457248.00;1.52;788.25;85206.00;0.28;148.03;;;;;16.70;1.00;;;;;;2272131;61;1437;-87
2022/05/01 00:06:19;357121.00;1.19;616.10;81726.00;0.27;142.02;;;;;16.80;1.00;;;;;;2272128;61;1923;-87
2022/05/01 00:08:52;806428.00;2.69;1392.34;31962.00;0.11;55.98;;;;;16.60;1.00;;;;;;2272257;61;1450;-88
2022/05/01 00:11:32;1399586.00;4.67;2455.56;17649.00;0.06;31.20;;;;;16.40;1.00;;;;;;2272197;61;1492;-88
2022/05/01 00:13:59;1664580.00;5.55;2956.81;73259.00;0.24;127.39;;;;;16.50;1.00;;;;;;2272283;61;1658;-86
2022/05/01 00:16:30;1250310.00;4.17;2181.45;91260.00;0.30;158.48;;;;;16.20;1.00;;;;;;2272226;61;1143;-88
2022/05/01 00:19:09;1003367.00;3.34;1738.44;24321.00;0.08;42.75;;;;;16.30;1.00;;;;;;2272170;61;1604;-87
2022/05/01 00:21:42;627624.00;2.09;1081.94;13379.00;0.04;23.80;;;;;16.30;1.00;;;;;;2271881;61;1470;-88
2022/05/01 00:24:21;859005.00;2.86;1484.23;114035.00;0.38;197.79;;;;;16.40;1.00;;;;;;2272202;61;1618;-88
2022/05/01 00:26:51;139140.00;0.46;241.09;0.00;0.00;0.62;;;;;16.30;1.00;;;;;;2272132;61;1930;-87
2022/05/01 00:29:21;190601.00;0.64;329.74;0.00;0.00;0.62;;;;;16.60;1.00;;;;;;2272178;61;1433;-86
2022/05/01 00:31:53;219681.00;0.73;379.79;0.00;0.00;0.62;;;;;16.60;1.00;;;;;;2272155;61;1538;-87
2022/05/01 00:37:16;0.00;0.00;0.62;0.00;0.00;0.62;;;;;16.90;1.00;;;;;;2272080;61;691;-89
2022/05/01 00:39:57;370367.00;1.23;638.87;0.00;0.00;0.62;;;;;16.90;1.00;;;;;;2277847;55;3731;-88
2022/05/01 00:42:30;299719.00;1.00;517.44;1458.00;0.00;3.15;;;;;16.80;1.00;;;;;;2276232;61;1492;-91
2022/05/01 00:45:08;249849.00;0.83;431.69;0.00;0.00;0.62;;;;;16.70;1.00;;;;;;2276092;61;2006;-90
2022/05/01 00:47:58;222104.00;0.74;383.96;0.00;0.00;0.62;;;;;16.60;1.00;;;;;;2276294;61;1153;-89
2022/05/01 00:50:33;374894.00;1.25;646.65;48540.00;0.16;84.66;;;;;16.40;1.00;;;;;;2275940;61;1486;-89
2022/05/01 00:53:12;169842.00;0.57;293.99;0.00;0.00;0.62;;;;;16.50;1.00;;;;;;2276119;61;1217;-87
2022/05/01 00:55:44;838851.00;2.80;1448.97;25474.00;0.08;44.75;;;;;16.30;1.00;;;;;;2276063;61;1483;-88
2022/05/01 00:58:18;354691.00;1.18;611.92;0.00;0.00;0.62;;;;;16.60;1.00;;;;;;2276074;61;1521;-87
2022/05/01 01:00:50;414115.00;1.38;714.07;0.00;0.00;0.62;;;;;16.70;1.00;;;;;;2276585;61;1634;-88
2022/05/01 01:03:23;245413.00;0.82;424.06;0.00;0.00;0.62;;;;;16.60;1.00;;;;;;2276817;61;1652;-89
2022/05/01 01:05:54;388132.00;1.29;669.40;0.00;0.00;0.62;;;;;16.40;1.00;;;;;;2276818;61;1915;-89
2022/05/01 01:08:33;234366.00;0.78;405.06;0.00;0.00;0.62;;;;;15.80;1.00;;;;;;2276800;61;1545;-90
2022/05/01 01:13:44;1243575.00;4.15;2169.21;130737.00;0.44;226.60;;;;;15.40;1.00;;;;;;2278313;61;1398;-88
2022/05/01 01:16:28;655873.00;2.19;1130.80;92823.00;0.31;161.18;;;;;15.30;1.00;;;;;;2276765;61;1468;-91
2022/05/01 01:18:57;576705.00;1.92;994.01;88752.00;0.30;154.15;;;;;14.90;1.00;;;;;;2276493;61;1504;-88
2022/05/01 01:21:32;628876.00;2.10;1084.11;91040.00;0.30;158.10;;;;;15.20;1.00;;;;;;2276640;61;1689;-87
2022/05/01 01:24:07;621864.00;2.07;1071.99;76256.00;0.25;132.57;;;;;15.50;1.00;;;;;;2276786;61;1716;-88
2022/05/01 01:26:41;1083323.00;3.61;1880.63;145796.00;0.49;252.56;;;;;15.40;1.00;;;;;;2276790;61;1918;-88
2022/05/01 01:32:10;529643.00;1.77;912.88;60801.00;0.20;105.86;;;;;15.60;1.00;;;;;;2276731;61;729;-87
2022/05/01 01:34:46;1417425.00;4.72;2488.68;129133.00;0.43;223.83;;;;;15.20;1.00;;;;;;2276579;61;1624;-88
2022/05/01 01:37:26;1627209.00;5.42;2884.85;106693.00;0.36;185.12;;;;;15.30;1.00;;;;;;2276636;61;1502;-88
2022/05/01 01:40:04;178700.00;0.60;309.25;0.00;0.00;0.62;;;;;15.10;1.00;;;;;;2276472;61;1469;-89
2022/05/01 01:42:36;236169.00;0.79;408.16;0.00;0.00;0.62;;;;;15.20;1.00;;;;;;2276616;61;1559;-88
2022/05/01 01:45:13;246777.00;0.82;426.41;0.00;0.00;0.62;;;;;15.50;1.00;;;;;;2276611;61;1539;-86
2022/05/01 01:47:43;266737.00;0.89;460.73;29307.00;0.10;51.38;;;;;15.50;1.00;;;;;;2276564;61;1737;-88
2022/05/01 01:50:14;496845.00;1.66;856.39;29368.00;0.10;51.49;;;;;15.00;1.00;;;;;;2276561;61;1644;-88
2022/05/01 01:52:47;186472.00;0.62;322.63;0.00;0.00;0.62;;;;;15.00;1.00;;;;;;2276511;61;1576;-87
2022/05/01 01:55:19;287948.00;0.96;497.20;31724.00;0.11;55.57;;;;;15.10;1.00;;;;;;2276575;61;1571;-89
2022/05/01 01:57:48;328583.00;1.10;567.05;0.00;0.00;0.62;;;;;15.30;1.00;;;;;;2276498;61;1577;-88
2022/05/01 02:00:20;419668.00;1.40;723.62;87139.00;0.29;151.37;;;;;15.40;1.00;;;;;;2276524;61;1396;-88
2022/05/01 02:02:47;302392.00;1.01;522.03;148.00;0.00;0.88;;;;;15.40;1.00;;;;;;2276492;61;1635;-87
2022/05/01 02:05:28;166335.00;0.55;287.95;0.00;0.00;0.62;;;;;15.50;1.00;;;;;;2276672;61;1984;-90
2022/05/01 02:08:01;74393.00;0.25;129.35;0.00;0.00;0.62;;;;;15.60;1.00;;;;;;2276586;61;1394;-88
2022/05/01 02:10:29;238493.00;0.79;412.16;0.00;0.00;0.62;;;;;15.50;1.00;;;;;;2276316;61;1521;-87
2022/05/01 02:13:05;277300.00;0.92;478.90;0.00;0.00;0.62;;;;;15.40;1.00;;;;;;2276411;61;1368;-87
2022/05/01 02:15:36;172734.00;0.58;298.98;0.00;0.00;0.62;;;;;15.40;1.00;;;;;;2276528;61;1471;-88
2022/05/01 02:18:17;135138.00;0.45;234.19;0.00;0.00;0.62;;;;;15.60;1.00;;;;;;2276522;61;1456;-88
2022/05/01 02:23:40;4871.00;0.02;9.06;0.00;0.00;0.62;;;;;15.70;1.00;;;;;;2276650;61;648;-89
2022/05/01 02:26:12;184545.00;0.62;319.32;0.00;0.00;0.62;;;;;16.00;1.00;;;;;;2276466;61;1927;-88
2022/05/01 02:28:43;281802.00;0.94;486.64;0.00;0.00;0.62;;;;;16.30;1.00;;;;;;2276570;61;1399;-86
2022/05/01 02:31:19;194293.00;0.65;336.10;0.00;0.00;0.62;;;;;16.20;1.00;;;;;;2276497;61;1418;-87
2022/05/01 02:33:54;549169.00;1.83;946.53;86768.00;0.29;150.73;;;;;16.10;1.00;;;;;;2276481;61;1492;-89
2022/05/01 02:36:28;496608.00;1.66;855.98;78353.00;0.26;136.19;;;;;15.90;1.00;;;;;;2276498;61;1534;-88
2022/05/01 02:39:00;370770.00;1.24;639.56;73229.00;0.24;127.34;;;;;16.00;1.00;;;;;;2276546;61;1402;-88
2022/05/01 02:41:28;507375.00;1.69;874.52;87052.00;0.29;151.22;;;;;16.50;1.00;;;;;;2276430;61;1521;-88
2022/05/01 02:44:04;444190.00;1.48;765.79;79302.00;0.26;137.83;;;;;16.50;1.00;;;;;;2276531;61;1463;-89
2022/05/01 02:46:36;127912640.00;426.38;84795584.00;182956.00;0.61;316.58;;;;;16.70;1.00;;;;;;2276439;61;1915;-86
2022/05/01 02:49:20;1416634.00;4.72;2487.21;43737.00;0.15;76.35;;;;;16.40;1.00;;;;;;2276580;61;1602;-88
2022/05/01 02:51:48;1172863.00;3.91;2041.23;39336.00;0.13;68.74;;;;;16.50;1.00;;;;;;2276247;61;1430;-89
2022/05/01 02:54:17;1188697.00;3.96;2069.80;160167.00;0.53;277.33;;;;;16.50;1.00;;;;;;2276449;61;1589;-88
2022/05/01 02:57:02;1096173.00;3.65;1903.58;67884.00;0.23;118.10;;;;;16.70;1.00;;;;;;2276408;61;1583;-87
2022/05/01 02:59:34;162558.00;0.54;281.45;0.00;0.00;0.62;;;;;16.60;1.00;;;;;;2276402;61;1370;-88
2022/05/01 03:02:13;442728.00;1.48;763.27;93148.00;0.31;161.74;;;;;16.50;1.00;;;;;;2276467;61;1555;-86
2022/05/01 03:04:45;243536.00;0.81;420.83;19703.00;0.07;34.76;;;;;16.40;1.00;;;;;;2276446;61;1496;-89
2022/05/01 03:07:17;131335.00;0.44;227.63;0.00;0.00;0.62;;;;;16.20;1.00;;;;;;2276366;61;2008;-89
2022/05/01 03:09:46;103890.00;0.35;180.29;0.00;0.00;0.62;;;;;16.20;1.00;;;;;;2276435;61;1437;-88
2022/05/01 03:15:02;19657.00;0.07;34.68;0.00;0.00;0.62;;;;;16.00;1.00;;;;;;2276413;61;1520;-88
2022/05/01 03:22:10;169867.00;0.57;294.04;0.00;0.00;0.62;;;;;16.00;1.00;;;;;;2276369;61;1627;-88
2022/05/01 03:23:16;266792.00;0.89;460.83;0.00;0.00;0.62;;;;;15.70;1.00;;;;;;2276166;61;1362;-89
2022/05/01 03:25:49;284549.00;0.95;491.36;0.00;0.00;0.62;;;;;15.60;1.00;;;;;;2276355;61;2006;-88
2022/05/01 03:28:18;118927.00;0.40;206.23;0.00;0.00;0.62;;;;;15.70;1.00;;;;;;2276471;61;1169;-87
2022/05/01 03:30:51;371274.00;1.24;640.43;0.00;0.00;0.62;;;;;16.00;1.00;;;;;;2276224;61;1620;-88
2022/05/01 03:33:23;304592.00;1.02;525.81;94465.00;0.31;164.02;;;;;16.10;1.00;;;;;;2276287;61;1444;-88
2022/05/01 03:35:59;284957.00;0.95;492.06;0.00;0.00;0.62;;;;;15.90;1.00;;;;;;2276354;61;1458;-87
2022/05/01 03:38:32;154000.00;0.51;266.70;0.00;0.00;0.62;;;;;15.50;1.00;;;;;;2276275;61;1030;-88
2022/05/01 03:41:08;228173.00;0.76;394.41;0.00;0.00;0.62;;;;;15.70;1.00;;;;;;2276339;61;1492;-88
2022/05/01 03:43:40;447956.00;1.49;772.27;36141.00;0.12;63.21;;;;;16.00;1.00;;;;;;2276387;61;1176;-89
2022/05/01 03:46:12;332443.00;1.11;573.69;0.00;0.00;0.62;;;;;16.20;1.00;;;;;;2276348;61;1923;-89
2022/05/01 03:48:50;117056.00;0.39;203.00;0.00;0.00;0.62;;;;;16.20;1.00;;;;;;2284816;39;3726;-89
2022/05/01 03:51:26;241569.00;0.81;417.45;0.00;0.00;0.62;;;;;15.70;1.00;;;;;;2284483;60;1509;-87
2022/05/01 03:54:02;282217.00;0.94;487.35;87967.00;0.29;152.80;;;;;15.50;1.00;;;;;;2284547;60;997;-86
2022/05/01 03:56:48;340006.00;1.13;586.68;66292.00;0.22;115.35;;;;;15.50;1.00;;;;;;2346519;55;3748;-90
2022/05/01 04:01:53;2016110.00;6.72;3657.46;157410.00;0.52;272.58;;;;;15.70;1.00;;;;;;2274097;61;1393;-89
2022/05/01 04:04:24;1257179.00;4.19;2193.95;68695.00;0.23;119.51;;;;;15.90;1.00;;;;;;2272292;61;1595;-88
2022/05/01 04:06:57;1165302.00;3.88;2027.61;50258.00;0.17;87.63;;;;;16.00;1.00;;;;;;2272092;61;1914;-89
2022/05/01 04:09:37;853883.00;2.85;1475.26;66735.00;0.22;116.12;;;;;16.10;1.00;;;;;;2272254;61;1413;-86
2022/05/01 04:12:13;246902.00;0.82;426.62;0.00;0.00;0.62;;;;;16.20;1.00;;;;;;2272174;61;1671;-87
2022/05/01 04:14:48;92366.00;0.31;160.39;0.00;0.00;0.62;;;;;15.60;1.00;;;;;;2272217;61;1584;-89
2022/05/01 04:17:21;244065.00;0.81;421.74;0.00;0.00;0.62;;;;;15.00;1.00;;;;;;2272095;61;1628;-90
2022/05/01 04:19:53;259393.00;0.86;448.10;0.00;0.00;0.62;;;;;14.80;1.00;;;;;;2272051;61;1395;-88
2022/05/01 04:22:27;120356.00;0.40;208.70;0.00;0.00;0.62;;;;;14.80;1.00;;;;;;2272265;61;1696;-88
2022/05/01 04:24:57;44260.00;0.15;77.26;0.00;0.00;0.62;;;;;14.90;1.00;;;;;;2272175;61;1561;-89
2022/05/01 04:27:45;177705.00;0.59;307.54;0.00;0.00;0.62;;;;;15.00;1.00;;;;;;2272134;61;2002;-89
2022/05/01 04:30:17;241147.00;0.80;416.72;0.00;0.00;0.62;;;;;14.80;1.00;;;;;;2272112;61;1423;-88
2022/05/01 04:32:55;257335.00;0.86;444.57;0.00;0.00;0.62;;;;;14.80;1.00;;;;;;2272114;61;1655;-89
2022/05/01 04:35:31;173871.00;0.58;300.93;0.00;0.00;0.62;;;;;14.90;1.00;;;;;;2271973;61;1492;-89
2022/05/01 04:38:01;200322.00;0.67;346.48;0.00;0.00;0.62;;;;;15.20;1.00;;;;;;2272250;61;1735;-88
2022/05/01 04:40:42;136809.00;0.46;237.07;0.00;0.00;0.62;;;;;15.60;1.00;;;;;;2271890;61;1561;-88
2022/05/01 04:43:22;291567.00;0.97;503.42;15670.00;0.05;27.77;;;;;16.10;1.00;;;;;;2272165;61;1510;-88
2022/05/01 04:46:01;193421.00;0.64;334.60;0.00;0.00;0.62;;;;;16.10;1.00;;;;;;2272074;61;1636;-87
2022/05/01 04:48:29;145540.00;0.49;252.12;0.00;0.00;0.62;;;;;15.90;1.00;;;;;;2272045;61;1481;-88
2022/05/01 04:53:40;1307721.00;4.36;2286.24;0.00;0.00;0.62;;;;;15.50;1.00;;;;;;2281412;55;3653;-88
2022/05/01 04:59:12;1547191.00;5.16;2732.24;156904.00;0.52;271.70;;;;;14.90;1.00;;;;;;2284347;60;641;-89
2022/05/01 05:04:14;2126638.00;7.09;3887.68;79483.00;0.26;138.14;;;;;14.50;1.00;;;;;;2277691;61;1396;-88
2022/05/01 05:06:53;1464952.00;4.88;2577.34;45610.00;0.15;79.59;;;;;15.00;1.00;;;;;;2275968;61;1911;-89
2022/05/01 05:12:09;395447.00;1.32;681.98;9807.00;0.03;17.61;;;;;15.40;1.00;;;;;;2280277;61;686;-87
2022/05/01 05:17:27;421287.00;1.40;726.40;19874.00;0.07;35.05;;;;;15.90;1.00;;;;;;2280248;61;1445;-88
2022/05/01 05:20:02;930534.00;3.10;1609.81;134353.00;0.45;232.84;;;;;15.90;1.00;;;;;;2279958;61;1501;-88
2022/05/01 05:22:36;750142.00;2.50;1294.30;36568.00;0.12;63.95;;;;;15.90;1.00;;;;;;2279788;61;1703;-88
2022/05/01 05:25:20;198922.00;0.66;344.07;0.00;0.00;0.62;;;;;16.10;1.00;;;;;;2280156;61;1639;-89
2022/05/01 05:27:57;161732.00;0.54;280.02;0.00;0.00;0.62;;;;;15.80;1.00;;;;;;2280103;61;2006;-87
2022/05/01 05:30:30;224172.00;0.75;387.52;0.00;0.00;0.62;;;;;15.60;1.00;;;;;;2279898;61;1507;-88
2022/05/01 05:33:03;182181.00;0.61;315.25;0.00;0.00;0.62;;;;;15.60;1.00;;;;;;2279979;61;1646;-89
2022/05/01 05:35:32;246137.00;0.82;425.31;35509.00;0.12;62.12;;;;;15.70;1.00;;;;;;2280139;61;1012;-90
2022/05/01 05:38:00;102978.00;0.34;178.71;0.00;0.00;0.62;;;;;15.80;1.00;;;;;;2280073;61;994;-88
2022/05/01 05:40:36;341222.00;1.14;588.77;0.00;0.00;0.62;;;;;15.90;1.00;;;;;;2279944;61;1485;-89
2022/05/01 05:43:10;130436.00;0.43;226.08;0.00;0.00;0.62;;;;;16.20;1.00;;;;;;2280113;61;1458;-87
2022/05/01 05:45:48;209402.00;0.70;362.11;0.00;0.00;0.62;;;;;16.50;1.00;;;;;;2280383;61;1578;-86
2022/05/01 05:48:22;259608.00;0.87;448.47;0.00;0.00;0.62;;;;;16.60;1.00;;;;;;2280708;61;2019;-88
2022/05/01 05:50:49;265104.00;0.88;457.93;0.00;0.00;0.62;;;;;16.70;1.00;;;;;;2280462;61;1676;-87
2022/05/01 05:53:21;307204.00;1.02;530.30;0.00;0.00;0.62;;;;;16.70;1.00;;;;;;2280712;61;1674;-87
2022/05/01 05:55:54;61252.00;0.20;106.64;0.00;0.00;0.62;;;;;16.30;1.00;;;;;;2280764;61;1549;-89
2022/05/01 06:01:25;149978.00;0.50;259.77;0.00;0.00;0.62;;;;;16.50;1.00;;;;;;2278989;61;1259;-88
2022/05/01 06:04:05;219025.00;0.73;378.67;0.00;0.00;0.62;;;;;16.50;1.00;;;;;;2280738;61;1401;-89
2022/05/01 06:06:34;227760.00;0.76;393.70;0.00;0.00;0.62;;;;;16.60;1.00;;;;;;2280615;61;2000;-88
2022/05/01 06:09:15;286598.00;0.96;494.88;0.00;0.00;0.62;;;;;16.50;1.00;;;;;;2280540;61;1348;-89
2022/05/01 06:11:47;455673.00;1.52;785.54;77888.00;0.26;135.39;;;;;16.40;1.00;;;;;;2280704;61;1372;-88
2022/05/01 06:14:23;503605.00;1.68;868.03;119599.00;0.40;207.39;;;;;16.20;1.00;;;;;;2280728;61;1620;-87
2022/05/01 06:16:58;565608.00;1.89;974.87;79690.00;0.27;138.50;;;;;16.20;1.00;;;;;;2280647;61;1654;-86
2022/05/01 06:19:42;612283.00;2.04;1055.43;79327.00;0.26;137.87;;;;;16.00;1.00;;;;;;2280666;61;1569;-88
2022/05/01 06:22:12;1651546.00;5.51;2931.66;128582.00;0.43;222.88;;;;;16.30;1.00;;;;;;2280741;61;1584;-88
2022/05/01 06:24:39;1600494.00;5.33;2833.68;142056.00;0.47;246.12;;;;;15.90;1.00;;;;;;2280638;61;1598;-86
2022/05/01 06:29:48;1427062.00;4.76;2506.61;25873.00;0.09;45.44;;;;;16.00;1.00;;;;;;2280568;61;1434;-88
2022/05/01 06:32:24;1577804.00;5.26;2790.39;236360.00;0.79;408.49;;;;;15.60;1.00;;;;;;2280663;61;1014;-87
2022/05/01 06:34:53;127533912.00;425.11;84043904.00;184208.00;0.61;318.74;;;;;15.20;1.00;;;;;;2280669;61;1075;-87
2022/05/01 06:37:26;877808.00;2.93;1517.18;84564.00;0.28;146.92;;;;;14.80;1.00;;;;;;2280706;61;1023;-88
2022/05/01 06:40:01;842561.00;2.81;1455.45;83087.00;0.28;144.37;;;;;15.10;1.00;;;;;;2280497;61;1602;-88
2022/05/01 06:42:34;1630665.00;5.44;2891.49;145301.00;0.48;251.71;;;;;15.30;1.00;;;;;;2280395;61;1695;-88
2022/05/01 06:45:09;1540115.00;5.13;2718.83;165894.00;0.55;287.19;;;;;15.50;1.00;;;;;;2280615;61;1618;-88
2022/05/01 06:47:45;1448167.00;4.83;2545.96;56138.00;0.19;97.80;;;;;15.50;1.00;;;;;;2280319;61;2010;-89
2022/05/01 06:50:14;1014358.00;3.38;1757.92;52109.00;0.17;90.83;;;;;16.00;1.00;;;;;;2280356;61;1627;-88
2022/05/01 06:55:19;1761911.00;5.87;3146.36;234609.00;0.78;405.48;;;;;16.60;1.00;;;;;;2274403;61;1397;-88
2022/05/01 06:57:54;1344636.00;4.48;2354.03;82246.00;0.27;142.92;;;;;17.00;1.00;;;;;;2272226;61;1418;-88
2022/05/01 07:00:30;1200876.00;4.00;2091.80;96815.00;0.32;168.07;;;;;17.20;1.00;;;;;;2272477;61;1416;-88
2022/05/01 07:03:02;271072.00;0.90;468.19;0.00;0.00;0.62;;;;;17.40;1.00;;;;;;2272319;61;1514;-86
2022/05/01 07:05:30;146774.00;0.49;254.25;0.00;0.00;0.62;;;;;17.40;1.00;;;;;;2272411;61;945;-89
2022/05/01 07:08:10;451846.00;1.51;778.96;6133.00;0.02;11.25;;;;;17.50;1.00;;;;;;2272356;61;1931;-87
2022/05/01 07:10:38;234903.00;0.78;405.98;0.00;0.00;0.62;;;;;17.70;1.00;;;;;;2272358;61;1462;-86
2022/05/01 07:13:12;354352.00;1.18;611.34;0.00;0.00;0.62;;;;;17.90;1.00;;;;;;2272416;61;1557;-88
2022/05/01 07:18:35;672055.00;2.24;1158.81;38463.00;0.13;67.23;;;;;18.10;1.00;;;;;;2282033;61;1343;-89
2022/05/01 07:21:03;298302.00;0.99;515.00;22695.00;0.08;39.94;;;;;17.80;1.00;;;;;;2280208;61;1657;-87
2022/05/01 07:23:37;243451.00;0.81;420.69;0.00;0.00;0.62;;;;;17.70;1.00;;;;;;2280183;61;1030;-87
2022/05/01 07:26:18;261073.00;0.87;450.99;44068.00;0.15;76.93;;;;;17.80;1.00;;;;;;2280099;61;1557;-88
2022/05/01 07:29:00;275964.00;0.92;476.60;0.00;0.00;0.62;;;;;18.00;1.00;;;;;;2279928;61;1935;-87
2022/05/01 07:31:28;179063.00;0.60;309.88;0.00;0.00;0.62;;;;;18.00;1.00;;;;;;2280012;61;1452;-88
2022/05/01 07:34:00;267335.00;0.89;461.76;12638.00;0.04;22.52;;;;;17.90;1.00;;;;;;2280087;61;1521;-86
2022/05/01 07:36:28;154315.00;0.51;267.24;0.00;0.00;0.62;;;;;18.20;1.00;;;;;;2280174;61;1571;-88
2022/05/01 07:39:04;302558.00;1.01;522.32;0.00;0.00;0.62;;;;;18.20;1.00;;;;;;2280070;61;1631;-88
2022/05/01 07:41:35;393177.00;1.31;678.08;10999.00;0.04;19.68;;;;;17.90;1.00;;;;;;2280023;61;1592;-87
2022/05/01 07:44:12;35264.00;0.12;61.69;0.00;0.00;0.62;;;;;17.70;1.00;;;;;;2279999;61;1548;-87
2022/05/01 07:46:50;339493.00;1.13;585.80;1476.00;0.00;3.18;;;;;17.80;1.00;;;;;;2279999;61;1634;-85
2022/05/01 07:49:31;153346.00;0.51;265.57;0.00;0.00;0.62;;;;;17.80;1.00;;;;;;2280080;61;1935;-87
2022/05/01 07:52:02;431788.00;1.44;744.46;0.00;0.00;0.62;;;;;17.60;1.00;;;;;;2280136;61;1566;-86
2022/05/01 07:54:38;378933.00;1.26;653.59;0.00;0.00;0.62;;;;;17.00;1.00;;;;;;2279966;61;1387;-88
2022/05/01 07:57:09;336015.00;1.12;579.82;0.00;0.00;0.62;;;;;16.70;1.00;;;;;;2279949;61;1626;-88
2022/05/01 07:59:51;336583.00;1.12;580.80;70235.00;0.23;122.17;;;;;16.70;1.00;;;;;;2280009;61;1463;-87
2022/05/01 08:02:28;277023.00;0.92;478.42;0.00;0.00;0.62;;;;;16.70;1.00;;;;;;2279816;61;1473;-88
2022/05/01 08:05:02;594327.00;1.98;1024.43;90701.00;0.30;157.52;;;;;17.30;1.00;;;;;;2279961;61;1206;-89
2022/05/01 08:07:44;251669.00;0.84;434.82;42479.00;0.14;74.18;;;;;17.80;1.00;;;;;;2279973;61;2009;-90
2022/05/01 08:10:12;501442.00;1.67;864.31;73006.00;0.24;126.95;;;;;17.90;1.00;;;;;;2279915;61;1503;-88
2022/05/01 08:12:46;733767.00;2.45;1265.85;97155.00;0.32;168.66;;;;;17.40;1.00;;;;;;2279866;61;1645;-87
2022/05/01 08:15:31;490132.00;1.63;844.84;101630.00;0.34;176.39;;;;;17.00;1.00;;;;;;2279994;61;1562;-89
2022/05/01 08:21:11;136023632.00;453.41;101989536.00;86631.00;0.29;150.49;;;;;17.90;1.00;;;;;;2274277;61;1511;-87
2022/05/01 08:26:31;64249.00;0.21;111.82;0.00;0.00;0.62;;;;;17.90;1.00;;;;;;2279814;61;1529;-86
2022/05/01 08:29:01;173267.00;0.58;299.89;0.00;0.00;0.62;;;;;17.70;1.00;;;;;;2280107;61;1910;-88
2022/05/01 08:31:42;403145.00;1.34;695.21;7587.00;0.03;13.77;;;;;17.70;1.00;;;;;;2280132;61;1340;-87
2022/05/01 08:34:17;296280.00;0.99;511.53;0.00;0.00;0.62;;;;;18.00;1.00;;;;;;2280180;61;1571;-87
2022/05/01 08:36:52;431014.00;1.44;743.13;62401.00;0.21;108.63;;;;;18.40;1.00;;;;;;2280040;61;1594;-87
2022/05/01 08:39:27;221561.00;0.74;383.03;0.00;0.00;0.62;;;;;18.40;1.00;;;;;;2280265;61;1616;-87
2022/05/01 08:41:58;395170.00;1.32;681.50;0.00;0.00;0.62;;;;;18.50;1.00;;;;;;2280115;61;1760;-87
2022/05/01 08:44:40;393485.00;1.31;678.61;0.00;0.00;0.62;;;;;18.60;1.00;;;;;;2279921;61;1538;-88
2022/05/01 08:47:16;427630.00;1.43;737.31;314.00;0.00;1.16;;;;;18.60;1.00;;;;;;2280068;61;989;-88
2022/05/01 08:49:52;210373.00;0.70;363.78;51405.00;0.17;89.62;;;;;17.40;1.00;;;;;;2280107;61;1622;-87
2022/05/01 08:52:29;199840.00;0.67;345.65;0.00;0.00;0.62;;;;;16.90;1.00;;;;;;2280166;61;1363;-88
2022/05/01 08:55:01;301384.00;1.00;520.30;0.00;0.00;0.62;;;;;17.20;1.00;;;;;;2280114;61;1550;-87
2022/05/01 08:57:32;271327.00;0.90;468.63;0.00;0.00;0.62;;;;;17.70;1.00;;;;;;2280064;61;1550;-87
2022/05/01 09:00:10;46294.00;0.15;80.78;0.00;0.00;0.62;;;;;18.00;1.00;;;;;;2280192;61;1587;-88
2022/05/01 09:02:44;119826.00;0.40;207.78;0.00;0.00;0.62;;;;;18.10;1.00;;;;;;2280288;61;1442;-87
2022/05/01 09:05:13;238721.00;0.80;412.55;0.00;0.00;0.62;;;;;18.30;1.00;;;;;;2280319;61;922;-87
2022/05/01 09:07:45;157723.00;0.53;273.12;0.00;0.00;0.62;;;;;18.20;1.00;;;;;;2280064;61;1915;-87
2022/05/01 09:10:25;134384.00;0.45;232.89;0.00;0.00;0.62;;;;;18.30;1.00;;;;;;2280149;61;1349;-87
2022/05/01 09:12:59;333331.00;1.11;575.21;0.00;0.00;0.62;;;;;18.60;1.00;;;;;;2280158;61;1586;-85
2022/05/01 09:15:43;226497.00;0.75;391.52;0.00;0.00;0.62;;;;;18.80;1.00;;;;;;2280266;61;1672;-87
2022/05/01 09:18:47;373755.00;1.25;644.69;22762.00;0.08;40.05;;;;;19.00;1.00;;;;;;2280119;61;1417;-87
2022/05/01 09:21:27;256605.00;0.86;443.31;0.00;0.00;0.62;;;;;18.90;1.00;;;;;;2280662;61;1348;-88
2022/05/01 09:24:06;648822.00;2.16;1118.60;130251.00;0.43;225.76;;;;;19.00;1.00;;;;;;2280996;61;1627;-87
2022/05/01 09:26:40;439139.00;1.46;757.10;90146.00;0.30;156.56;;;;;19.30;1.00;;;;;;2280807;61;1537;-86
2022/05/01 09:29:22;1318992.00;4.40;2306.91;132181.00;0.44;229.09;;;;;19.10;1.00;;;;;;2280769;61;1919;-87
2022/05/01 09:31:54;1090127.00;3.63;1892.78;47158.00;0.16;82.27;;;;;19.50;1.00;;;;;;2280833;61;1473;-86
2022/05/01 09:34:35;1025013.00;3.42;1776.82;35430.00;0.12;61.98;;;;;19.50;1.00;;;;;;2280680;61;1626;-87
2022/05/01 09:37:20;223627.00;0.75;386.58;0.00;0.00;0.62;;;;;20.00;1.00;;;;;;2280776;61;2187;-88
2022/05/01 09:39:52;71725.00;0.24;124.74;0.00;0.00;0.62;;;;;20.30;1.00;;;;;;2281384;61;1601;-86
2022/05/01 09:42:24;176866.00;0.59;306.09;0.00;0.00;0.62;;;;;20.20;1.00;;;;;;2281406;61;1551;-88
2022/05/01 09:45:08;19818.00;0.07;34.95;0.00;0.00;0.62;;;;;20.00;1.00;;;;;;2281445;61;1027;-88
2022/05/01 09:47:36;0.00;0.00;0.62;0.00;0.00;0.62;;;;;19.30;1.00;;;;;;2281420;61;1923;-89
2022/05/01 09:50:05;219476.00;0.73;379.44;0.00;0.00;0.62;;;;;18.80;1.00;;;;;;2281451;61;1650;-88
2022/05/01 09:52:56;1695.00;0.01;3.56;0.00;0.00;0.62;;;;;19.10;1.00;;;;;;2281382;61;1229;-86
2022/05/01 09:55:26;0.00;0.00;0.62;0.00;0.00;0.62;;;;;19.50;1.00;;;;;;2281526;61;1143;-86
2022/05/01 09:58:03;117564.00;0.39;203.88;32272.00;0.11;56.52;;;;;19.80;1.00;;;;;;2281420;61;2032;-86
2022/05/01 10:00:40;0.00;0.00;0.62;0.00;0.00;0.62;;;;;19.90;1.00;;;;;;2281345;61;1444;-85
2022/05/01 10:03:28;133286.00;0.44;231.00;0.00;0.00;0.62;;;;;19.60;1.00;;;;;;2281383;61;1391;-87
2022/05/01 10:05:58;32294.00;0.11;56.55;0.00;0.00;0.62;;;;;19.70;1.00;;;;;;2281306;61;1428;-87
2022/05/01 10:08:31;163926.00;0.55;283.80;0.00;0.00;0.62;;;;;19.70;1.00;;;;;;2281327;61;1915;-87
2022/05/01 10:11:10;281428.00;0.94;485.99;0.00;0.00;0.62;;;;;19.80;1.00;;;;;;2281233;61;1461;-87
2022/05/01 10:13:43;137006.00;0.46;237.41;0.00;0.00;0.62;;;;;19.50;1.00;;;;;;2281373;61;1560;-87
2022/05/01 10:16:20;26713.00;0.09;46.89;0.00;0.00;0.62;;;;;19.60;1.00;;;;;;2281328;61;1564;-88
2022/05/01 10:18:48;446780.00;1.49;770.24;25273.00;0.08;44.40;;;;;19.30;1.00;;;;;;2277302;61;1121;-88
2022/05/01 10:21:15;6788.00;0.02;12.38;0.00;0.00;0.62;;;;;19.30;1.00;;;;;;2277135;61;1400;-85
2022/05/01 10:23:42;97823.00;0.33;169.81;0.00;0.00;0.62;;;;;19.40;1.00;;;;;;2277280;61;1097;-88
2022/05/01 10:26:17;37250.00;0.12;65.13;0.00;0.00;0.62;;;;;20.10;1.00;;;;;;2277304;61;1125;-87
2022/05/01 10:29:06;0.00;0.00;0.62;0.00;0.00;0.62;;;;;20.40;1.00;;;;;;2277308;61;1911;-86
2022/05/01 10:35:19;287635.00;0.96;496.66;93221.00;0.31;161.87;;;;;21.00;1.00;;;;;;2277312;61;746;-86
2022/05/01 10:38:17;214997.00;0.72;371.73;84889.00;0.28;147.48;;;;;20.30;1.00;;;;;;2277032;61;2049;-88
2022/05/01 10:40:49;117337.00;0.39;203.49;0.00;0.00;0.62;;;;;20.60;1.00;;;;;;2277207;61;1734;-89
2022/05/01 10:43:25;60819.00;0.20;105.89;0.00;0.00;0.62;;;;;20.30;1.00;;;;;;2277268;61;1041;-89
2022/05/01 10:45:53;478517.00;1.60;824.85;82664.00;0.28;143.64;;;;;20.50;1.00;;;;;;2277157;61;1609;-89
2022/05/01 10:48:37;29536.00;0.10;51.78;0.00;0.00;0.62;;;;;20.60;1.00;;;;;;2277144;61;1915;-88
2022/05/01 10:51:40;177499.00;0.59;307.18;0.00;0.00;0.62;;;;;21.00;1.00;;;;;;2277134;61;1373;-88
2022/05/01 10:54:38;692708.00;2.31;1194.60;105460.00;0.35;183.00;;;;;20.80;1.00;;;;;;2276967;61;1101;-88
2022/05/01 10:57:14;760881.00;2.54;1312.98;8121.00;0.03;14.69;;;;;20.10;1.00;;;;;;2277220;61;1099;-88
2022/05/01 10:59:58;687821.00;2.29;1186.13;20512.00;0.07;36.16;;;;;20.00;1.00;;;;;;2277124;61;1627;-89
2022/05/01 11:02:31;595428.00;1.98;1026.33;0.00;0.00;0.62;;;;;20.00;1.00;;;;;;2277182;61;1573;-88
2022/05/01 11:05:00;768983.00;2.56;1327.08;8262.00;0.03;14.94;;;;;20.50;1.00;;;;;;2276635;61;1540;-89
2022/05/01 11:07:29;408153.00;1.36;703.82;0.00;0.00;0.62;;;;;20.60;1.00;;;;;;2276603;61;1022;-87